Pacific Palisades, California
Current Conditions -  °F | °C
As of 2:51 PM on Tuesday 25 Nov 2014 (Local Time) from KSMO Reporting Station
Clear Clear  
Wind Chill: 23°   Ceiling: Unl
Heat Index: 23°   Visibility: 10mi
Dew Point: -8°   Wind: 7mph
Humidity: 12%   Direction: 240°WSW
Pressure: 30.27"   Gusts: NA
Location:  34.05°N, 118.53°W
Report Text: KSMO 252251Z 24006KT 10SM CLR 23/M08 A3027 RMK AO2 SLP247 T02331078
Loading
Personal Weather Stations






























Interactive Weather Map New forecast layout! Learn more

10-Day Weather Forecast

Advertisements
Track Severe Weather on mobile